Time;durP1;ratioP1;P1;durP2;ratioP2;P2;SDS_P1;SDS_P2;PMS_P1;PMS_P2;Temp;Humidity;BMP_temperature;BMP_pressure;BME280_temperature;BME280_humidity;BME280_pressure;Samples;Min_cycle;Max_cycle;Signal;HPM_P1;HPM_P2
2021/09/28 00:02:29;;;;;;;1999.90;999.90;;;;;;;18.93;80.62;101417.56;15693391;28;20103;-60
2021/09/28 00:10:04;;;;;;;1999.90;999.90;;;;;;;18.94;80.24;101427.69;15688411;28;20572;-59
2021/09/28 00:17:36;;;;;;;1999.90;999.90;;;;;;;18.90;80.20;101429.63;15699435;28;20147;-60
2021/09/28 00:25:11;;;;;;;1999.90;999.90;;;;;;;19.00;80.49;101429.03;15699379;28;20053;-60
2021/09/28 00:32:43;;;;;;;1999.90;999.90;;;;;;;19.02;81.97;101433.09;15658621;28;20425;-59
2021/09/28 00:40:17;;;;;;;1999.90;999.90;;;;;;;19.15;81.67;101447.09;15675094;28;20505;-60
2021/09/28 00:47:49;;;;;;;1999.90;999.90;;;;;;;19.14;81.73;101454.75;15702147;28;20040;-59
2021/09/28 00:55:27;;;;;;;1999.90;999.90;;;;;;;19.17;81.21;101456.00;15698358;28;20052;-59
2021/09/28 01:03:00;;;;;;;1999.90;999.90;;;;;;;18.94;81.00;101456.78;15711826;28;20125;-60
2021/09/28 01:10:33;;;;;;;1999.90;999.90;;;;;;;18.88;80.69;101460.28;15698490;28;20448;-59
2021/09/28 01:18:05;;;;;;;1999.90;999.90;;;;;;;18.73;80.78;101468.44;15707931;28;20122;-59
2021/09/28 01:25:40;;;;;;;1999.90;999.90;;;;;;;18.73;80.92;101464.81;15696033;28;20529;-58
2021/09/28 01:33:13;;;;;;;1999.90;999.90;;;;;;;18.62;81.10;101461.72;15635835;28;20041;-60
2021/09/28 01:40:46;;;;;;;1999.90;999.90;;;;;;;18.60;81.48;101475.41;15707689;28;20044;-59
2021/09/28 01:48:19;;;;;;;1999.90;999.90;;;;;;;18.81;81.11;101485.56;15715368;28;20099;-60
2021/09/28 01:55:52;;;;;;;1999.90;999.90;;;;;;;18.80;81.53;101479.09;15676133;28;20053;-59
2021/09/28 02:03:24;;;;;;;1999.90;999.90;;;;;;;18.73;81.58;101479.75;15685306;28;20465;-60
2021/09/28 02:10:58;;;;;;;1999.90;999.90;;;;;;;18.68;81.77;101474.41;15658468;28;20131;-63
2021/09/28 02:18:31;;;;;;;1999.90;999.90;;;;;;;18.76;81.54;101486.69;15722275;22;20497;-61
2021/09/28 02:26:05;;;;;;;1999.90;999.90;;;;;;;18.82;81.72;101485.19;15683528;28;20107;-59
2021/09/28 02:33:37;;;;;;;1999.90;999.90;;;;;;;18.74;81.72;101492.69;15659160;28;20103;-61
2021/09/28 02:41:10;;;;;;;1999.90;999.90;;;;;;;18.73;81.35;101498.72;15645581;28;20629;-61
2021/09/28 02:48:43;;;;;;;1999.90;999.90;;;;;;;18.62;81.29;101495.63;15659005;28;20456;-59
2021/09/28 02:56:16;;;;;;;1999.90;999.90;;;;;;;18.69;81.36;101501.47;15689421;28;20051;-60
2021/09/28 03:03:49;;;;;;;1999.90;999.90;;;;;;;18.84;81.51;101511.09;15687979;28;20041;-59
2021/09/28 03:11:26;;;;;;;1999.90;999.90;;;;;;;18.91;82.16;101519.75;15670983;28;20036;-58
2021/09/28 03:18:59;;;;;;;1999.90;999.90;;;;;;;18.89;82.35;101524.13;15642161;28;20054;-60
2021/09/28 03:26:32;;;;;;;1999.90;999.90;;;;;;;18.81;82.33;101513.84;15669992;28;20039;-61
2021/09/28 03:34:05;;;;;;;1999.90;999.90;;;;;;;18.87;80.92;101518.03;15668425;28;20301;-60
2021/09/28 03:41:38;;;;;;;1999.90;999.90;;;;;;;18.98;80.36;101530.41;15652042;28;20091;-60
2021/09/28 03:49:11;;;;;;;1999.90;999.90;;;;;;;19.01;79.77;101535.31;15662768;28;20036;-59
2021/09/28 03:56:47;;;;;;;1999.90;999.90;;;;;;;18.89;79.66;101543.94;15634727;28;20068;-59
2021/09/28 04:04:20;;;;;;;1999.90;999.90;;;;;;;18.78;79.38;101549.34;15684069;28;20128;-60
2021/09/28 04:11:54;;;;;;;1999.90;999.90;;;;;;;18.79;78.37;101565.13;15684780;28;20492;-59
2021/09/28 04:19:27;;;;;;;1999.90;999.90;;;;;;;18.58;77.68;101573.06;15666088;28;20056;-58
2021/09/28 04:27:01;;;;;;;1999.90;999.90;;;;;;;18.43;77.60;101566.22;15683867;28;20296;-60
2021/09/28 04:34:33;;;;;;;1999.90;999.90;;;;;;;18.08;78.30;101583.91;15649021;28;20049;-58
2021/09/28 04:42:07;;;;;;;1999.90;999.90;;;;;;;18.18;77.37;101599.50;15683735;28;20109;-61
2021/09/28 04:49:39;;;;;;;1999.90;999.90;;;;;;;18.06;77.33;101613.72;15682548;28;20083;-59
2021/09/28 04:57:13;;;;;;;1999.90;999.90;;;;;;;18.02;77.03;101624.91;15682694;28;20083;-61
2021/09/28 05:04:45;;;;;;;1999.90;999.90;;;;;;;17.86;76.59;101627.72;15646357;28;20503;-59
2021/09/28 05:12:20;;;;;;;1999.90;999.90;;;;;;;18.05;75.85;101649.63;15669991;28;20048;-61
2021/09/28 05:19:52;;;;;;;1999.90;999.90;;;;;;;17.78;75.97;101641.97;15651613;28;20037;-60
2021/09/28 05:27:26;;;;;;;1999.90;999.90;;;;;;;17.78;76.03;101659.72;15652387;28;20448;-59
2021/09/28 05:35:18;;;;;;;1999.90;999.90;;;;;;;18.04;75.22;101664.91;15661136;28;20040;-61
2021/09/28 05:42:52;;;;;;;1999.90;999.90;;;;;;;18.09;75.06;101656.16;15677189;28;20041;-60
2021/09/28 05:50:26;;;;;;;1999.90;999.90;;;;;;;18.17;74.72;101662.84;15659312;28;20461;-60
2021/09/28 05:58:05;;;;;;;1999.90;999.90;;;;;;;18.07;76.03;101678.31;15659601;28;20420;-61
2021/09/28 06:05:37;;;;;;;1999.90;999.90;;;;;;;18.03;76.30;101693.50;15643799;28;20049;-62
2021/09/28 06:13:11;;;;;;;1999.90;999.90;;;;;;;17.83;77.81;101712.31;15660113;28;20049;-60
2021/09/28 06:20:43;;;;;;;1999.90;999.90;;;;;;;17.89;77.44;101713.69;15676916;28;20052;-57
2021/09/28 06:28:18;;;;;;;1999.90;999.90;;;;;;;18.16;76.98;101703.56;15677029;28;20044;-59
2021/09/28 06:35:50;;;;;;;1999.90;999.90;;;;;;;18.23;76.57;101714.22;15677818;28;20041;-59
2021/09/28 06:43:24;;;;;;;1999.90;999.90;;;;;;;18.21;76.68;101725.91;15646466;28;20041;-59
2021/09/28 06:50:56;;;;;;;1999.90;999.90;;;;;;;18.18;76.21;101737.91;15614798;28;20494;-56
2021/09/28 06:58:32;;;;;;;1999.90;999.90;;;;;;;18.27;75.69;101747.06;15597129;28;20034;-58
2021/09/28 07:06:05;;;;;;;1999.90;999.90;;;;;;;18.25;75.81;101755.09;15596555;28;20041;-59
2021/09/28 07:13:39;;;;;;;1999.90;999.90;;;;;;;18.36;75.05;101766.69;15614377;28;20041;-58
2021/09/28 07:21:11;;;;;;;1999.90;999.90;;;;;;;18.32;74.72;101780.69;15614054;28;20045;-58
2021/09/28 07:28:45;;;;;;;1999.90;999.90;;;;;;;18.33;75.26;101787.97;15613426;28;20518;-60
2021/09/28 07:36:18;;;;;;;1999.90;999.90;;;;;;;18.37;74.85;101805.88;15584797;28;20306;-56
2021/09/28 07:43:51;;;;;;;1999.90;999.90;;;;;;;18.16;75.97;101796.78;15659689;28;20047;-60
2021/09/28 07:51:24;;;;;;;1999.90;999.90;;;;;;;17.96;77.56;101803.44;15668005;28;20067;-59
2021/09/28 07:58:59;;;;;;;1999.90;999.90;;;;;;;18.00;78.50;101821.31;15684901;28;20587;-58
2021/09/28 08:06:32;;;;;;;1999.90;999.90;;;;;;;18.12;77.83;101836.22;15666304;28;20053;-61
2021/09/28 08:14:05;;;;;;;1999.90;999.90;;;;;;;18.54;77.38;101835.00;15684774;28;20044;-60
2021/09/28 08:21:38;;;;;;;1999.90;999.90;;;;;;;18.45;75.93;101841.66;15667332;28;20052;-62
2021/09/28 08:29:11;;;;;;;1999.90;999.90;;;;;;;18.45;75.25;101864.25;15667180;28;20120;-62
2021/09/28 08:36:46;;;;;;;1999.90;999.90;;;;;;;18.28;76.96;101864.53;15666056;28;20057;-62
2021/09/28 08:44:20;;;;;;;1999.90;999.90;;;;;;;18.50;74.75;101873.66;15626302;28;20498;-62
2021/09/28 08:51:53;;;;;;;1999.90;999.90;;;;;;;18.27;75.62;101868.56;15587379;28;20063;-61
2021/09/28 08:59:41;;;;;;;1999.90;999.90;;;;;;;18.39;76.14;101867.69;15621561;28;20057;-61
2021/09/28 09:07:25;;;;;;;1999.90;999.90;;;;;;;18.50;76.79;101877.28;15602454;28;20045;-62
2021/09/28 09:15:24;;;;;;;1999.90;999.90;;;;;;;18.47;77.06;101866.72;15619894;28;20457;-62
2021/09/28 09:22:57;;;;;;;1999.90;999.90;;;;;;;18.46;77.76;101874.38;15619757;28;20049;-62
2021/09/28 09:30:32;;;;;;;;;;;;;;;18.62;77.43;101880.06;15619061;28;20076;-62
2021/09/28 09:38:07;;;;;;;1999.90;999.90;;;;;;;18.49;78.00;101891.78;15600893;28;19925;-63
2021/09/28 09:45:40;;;;;;;1999.90;999.90;;;;;;;18.93;77.60;101879.34;15667780;28;20064;-62
2021/09/28 09:53:13;;;;;;;1999.90;999.90;;;;;;;18.96;76.70;101881.44;15661646;28;20421;-63
2021/09/28 10:00:48;;;;;;;1999.90;999.90;;;;;;;19.54;76.38;101886.59;15660627;28;20094;-63
2021/09/28 10:08:23;;;;;;;1999.90;999.90;;;;;;;19.62;75.99;101882.81;15677970;28;20059;-62
2021/09/28 10:16:29;;;;;;;1999.90;999.90;;;;;;;19.39;74.17;101876.94;15660992;28;20075;-62
2021/09/28 10:24:26;;;;;;;1999.90;999.90;;;;;;;19.65;74.75;101875.56;15644066;28;20049;-63
2021/09/28 10:31:59;;;;;;;1999.90;999.90;;;;;;;19.71;74.11;101879.78;15677717;28;20453;-63
2021/09/28 10:39:39;;;;;;;1999.90;999.90;;;;;;;19.80;72.92;101889.72;15659459;28;20540;-63
2021/09/28 10:47:46;;;;;;;1999.90;999.90;;;;;;;19.36;73.34;101896.66;15597948;28;20069;-62
2021/09/28 10:55:22;;;;;;;1999.90;999.90;;;;;;;19.33;73.50;101898.22;15597594;28;20054;-62
2021/09/28 11:02:56;;;;;;;1999.90;999.90;;;;;;;19.50;70.54;101897.84;15597459;28;20033;-62
2021/09/28 11:10:31;;;;;;;1999.90;999.90;;;;;;;19.65;71.36;101892.56;15619004;28;20128;-63
2021/09/28 11:18:07;;;;;;;1999.90;999.90;;;;;;;20.00;70.02;101901.91;15610595;28;20081;-63
2021/09/28 11:25:48;;;;;;;1999.90;999.90;;;;;;;20.45;68.37;101894.88;15626482;28;20586;-62
2021/09/28 11:33:21;;;;;;;1999.90;999.90;;;;;;;20.60;64.94;101891.13;15608715;28;20041;-63
2021/09/28 11:40:58;;;;;;;;;;;;;;;21.00;65.88;101893.56;15636615;28;20037;-62
2021/09/28 11:48:38;;;;;;;1999.90;999.90;;;;;;;20.80;62.76;101876.94;15686130;28;19960;-62
2021/09/28 11:56:15;;;;;;;1999.90;999.90;;;;;;;20.98;63.09;101878.94;15667916;28;20110;-62
2021/09/28 12:04:07;;;;;;;1999.90;999.90;;;;;;;21.24;60.40;101875.34;15667088;28;20055;-60
2021/09/28 12:12:03;;;;;;;1999.90;999.90;;;;;;;21.83;59.87;101881.63;15684631;28;20041;-63
2021/09/28 12:19:36;;;;;;;1999.90;999.90;;;;;;;21.64;56.23;101876.03;15683387;28;20063;-63
2021/09/28 12:27:10;;;;;;;1999.90;999.90;;;;;;;21.38;57.76;101879.69;15683813;28;20048;-63
2021/09/28 12:34:55;;;;;;;1999.90;999.90;;;;;;;21.32;59.12;101877.13;15684049;28;20041;-63
2021/09/28 12:42:30;;;;;;;1999.90;999.90;;;;;;;22.08;55.37;101862.94;15641519;28;20070;-63
2021/09/28 12:50:24;;;;;;;1999.90;999.90;;;;;;;24.11;49.96;101862.16;15620444;28;20068;-63
2021/09/28 12:57:58;;;;;;;1999.90;999.90;;;;;;;24.00;49.67;101858.44;15617736;28;20135;-62
2021/09/28 13:05:32;;;;;;;1999.90;999.90;;;;;;;25.28;46.90;101869.53;15620258;28;20046;-62
2021/09/28 13:13:05;;;;;;;1999.90;999.90;;;;;;;30.27;38.38;101871.50;15619784;28;20103;-62
2021/09/28 13:20:41;;;;;;;1999.90;999.90;;;;;;;28.03;40.53;101869.09;15619195;28;20104;-63
2021/09/28 13:28:15;;;;;;;1999.90;999.90;;;;;;;23.86;49.40;101852.63;15620901;28;20046;-62
2021/09/28 13:35:47;;;;;;;1999.90;999.90;;;;;;;23.32;51.05;101859.94;15617159;28;20038;-62
2021/09/28 13:43:21;;;;;;;1999.90;999.90;;;;;;;22.43;50.78;101850.41;15649556;28;20037;-62
2021/09/28 13:50:56;;;;;;;1999.90;999.90;;;;;;;22.45;50.85;101837.44;15661512;28;20041;-63
2021/09/28 13:58:30;;;;;;;1999.90;999.90;;;;;;;22.37;51.97;101832.06;15661447;28;20036;-62
2021/09/28 14:06:05;;;;;;;1999.90;999.90;;;;;;;21.84;55.29;101832.94;15678401;28;20056;-62
2021/09/28 14:13:38;;;;;;;1999.90;999.90;;;;;;;21.60;54.24;101828.53;15661891;28;20033;-63
2021/09/28 14:21:11;;;;;;;1999.90;999.90;;;;;;;21.09;54.93;101830.06;15639297;22;20514;-57
2021/09/28 14:28:45;;;;;;;1999.90;999.90;;;;;;;21.50;54.02;101829.16;15622491;28;20037;-59
2021/09/28 14:36:17;;;;;;;1999.90;999.90;;;;;;;21.53;53.49;101822.72;15671293;28;20526;-61
2021/09/28 14:43:50;;;;;;;1999.90;999.90;;;;;;;21.53;54.43;101825.56;15644656;28;20029;-61
2021/09/28 14:51:23;;;;;;;1999.90;999.90;;;;;;;21.50;55.09;101822.69;15674602;28;20517;-60
2021/09/28 14:58:57;;;;;;;;;;;;;;;21.54;55.66;101829.22;15674923;28;20056;-60
2021/09/28 15:06:29;;;;;;;1999.90;999.90;;;;;;;21.28;57.15;101830.03;15666757;28;19921;-61
2021/09/28 15:14:03;;;;;;;1999.90;999.90;;;;;;;21.12;58.00;101821.59;15667897;28;20267;-60
2021/09/28 15:21:35;;;;;;;1999.90;999.90;;;;;;;21.03;59.76;101824.69;15690918;28;20049;-60
2021/09/28 15:29:09;;;;;;;1999.90;999.90;;;;;;;20.71;58.65;101826.09;15691256;28;20077;-59
2021/09/28 15:36:41;;;;;;;1999.90;999.90;;;;;;;20.59;60.76;101815.75;15688604;28;20175;-59
2021/09/28 15:44:16;;;;;;;;;;;;;;;20.43;60.88;101820.72;15672739;28;20099;-60
2021/09/28 15:51:48;;;;;;;1999.90;999.90;;;;;;;20.10;61.03;101821.19;15672353;28;20384;-59
2021/09/28 15:59:22;;;;;;;1999.90;999.90;;;;;;;19.90;61.33;101820.34;15681075;28;20412;-59
2021/09/28 16:06:54;;;;;;;1999.90;999.90;;;;;;;19.70;62.51;101828.00;15679303;28;20106;-59
2021/09/28 16:14:28;;;;;;;1999.90;999.90;;;;;;;19.55;63.89;101829.66;15677386;28;20128;-58
2021/09/28 16:22:00;;;;;;;1999.90;999.90;;;;;;;19.25;63.81;101823.63;15651656;28;20127;-60
2021/09/28 16:29:34;;;;;;;1999.90;999.90;;;;;;;19.10;64.21;101817.97;15677833;28;20049;-60
2021/09/28 16:37:06;;;;;;;1999.90;999.90;;;;;;;18.80;65.14;101812.75;15678206;28;20468;-58
2021/09/28 16:44:40;;;;;;;1999.90;999.90;;;;;;;18.57;67.29;101820.97;15651873;28;20045;-59
2021/09/28 16:52:12;;;;;;;1999.90;999.90;;;;;;;18.38;67.94;101807.53;15626784;28;20059;-60
2021/09/28 16:59:45;;;;;;;1999.90;999.90;;;;;;;18.18;67.97;101800.88;15676504;28;20040;-60
2021/09/28 17:07:18;;;;;;;1999.90;999.90;;;;;;;18.02;68.80;101808.47;15675632;28;20045;-61
2021/09/28 17:14:51;;;;;;;1999.90;999.90;;;;;;;17.90;69.46;101794.38;15669512;28;20069;-61
2021/09/28 17:22:24;;;;;;;1999.90;999.90;;;;;;;17.60;71.21;101794.66;15595708;28;20076;-61
2021/09/28 17:29:57;;;;;;;1999.90;999.90;;;;;;;17.11;70.90;101801.50;15666062;28;20052;-60
2021/09/28 17:37:31;;;;;;;1999.90;999.90;;;;;;;17.43;71.17;101794.09;15675164;28;20651;-60
2021/09/28 17:45:06;;;;;;;1999.90;999.90;;;;;;;17.21;71.36;101801.84;15656159;28;20091;-59
2021/09/28 17:52:40;;;;;;;1999.90;999.90;;;;;;;17.15;72.06;101793.97;15671652;28;20052;-59
2021/09/28 18:00:15;;;;;;;1999.90;999.90;;;;;;;17.17;72.53;101792.44;15665394;28;20400;-60
2021/09/28 18:07:47;;;;;;;1999.90;999.90;;;;;;;17.22;73.68;101809.16;15628009;28;20045;-62
2021/09/28 18:15:21;;;;;;;1999.90;999.90;;;;;;;17.24;73.49;101798.31;15655032;28;20118;-61
2021/09/28 18:22:54;;;;;;;1999.90;999.90;;;;;;;16.98;74.81;101798.66;15631588;28;20049;-61
2021/09/28 18:30:28;;;;;;;1999.90;999.90;;;;;;;17.08;74.32;101805.00;15642103;28;20083;-61
2021/09/28 18:38:00;;;;;;;1999.90;999.90;;;;;;;17.14;73.64;101814.91;15654188;28;20049;-60
2021/09/28 18:45:34;;;;;;;1999.90;999.90;;;;;;;17.09;73.92;101818.78;15669175;28;20064;-61
2021/09/28 18:53:07;;;;;;;1999.90;999.90;;;;;;;17.46;72.42;101813.13;15637387;28;20084;-59
2021/09/28 19:00:54;;;;;;;1999.90;999.90;;;;;;;17.25;73.04;101805.59;15625439;28;20096;-61
2021/09/28 19:08:29;;;;;;;1999.90;999.90;;;;;;;17.14;73.42;101806.44;15636824;28;20067;-58
2021/09/28 19:16:08;;;;;;;1999.90;999.90;;;;;;;17.11;73.15;101816.44;15631281;28;20495;-59
2021/09/28 19:23:40;;;;;;;1999.90;999.90;;;;;;;16.88;73.65;101812.38;15645105;28;20140;-61
2021/09/28 19:31:14;;;;;;;1999.90;999.90;;;;;;;16.76;74.03;101815.16;15638561;28;20053;-57
2021/09/28 19:38:48;;;;;;;1999.90;999.90;;;;;;;16.49;74.30;101816.59;15659285;28;20044;-60
2021/09/28 19:46:23;;;;;;;1999.90;999.90;;;;;;;16.44;74.43;101810.00;15622692;28;20100;-58
2021/09/28 19:53:59;;;;;;;1999.90;999.90;;;;;;;16.24;75.15;101796.78;15657880;28;20037;-57
2021/09/28 20:01:44;;;;;;;1999.90;999.90;;;;;;;16.26;75.27;101788.81;15649660;28;20191;-58
2021/09/28 20:40:35;;;;;;;1999.90;999.90;;;;;;;16.06;76.16;101786.84;15616072;28;20404;-56
2021/09/28 20:48:09;;;;;;;1999.90;999.90;;;;;;;15.98;76.00;101779.31;15656792;28;20364;-59
2021/09/28 20:55:41;;;;;;;1999.90;999.90;;;;;;;15.87;76.13;101778.91;15671276;28;20052;-62
2021/09/28 21:03:17;;;;;;;1999.90;999.90;;;;;;;15.81;76.50;101772.63;15661729;28;20079;-60
2021/09/28 21:10:49;;;;;;;1999.90;999.90;;;;;;;15.67;76.87;101765.63;15627398;28;20071;-59
2021/09/28 21:18:23;;;;;;;1999.90;999.90;;;;;;;15.54;77.25;101754.28;15660499;28;20106;-60
2021/09/28 21:25:55;;;;;;;1999.90;999.90;;;;;;;15.58;76.48;101758.06;15667071;28;20040;-60
2021/09/28 21:33:29;;;;;;;1999.90;999.90;;;;;;;15.43;76.63;101763.47;15654759;28;20045;-59
2021/09/28 21:41:02;;;;;;;1999.90;999.90;;;;;;;15.34;76.76;101755.09;15637279;28;20524;-58
2021/09/28 21:48:35;;;;;;;1999.90;999.90;;;;;;;15.16;77.12;101753.53;15654592;28;20048;-60
2021/09/28 21:56:08;;;;;;;1999.90;999.90;;;;;;;15.29;76.65;101747.66;15665305;28;20041;-60
2021/09/28 22:03:41;;;;;;;1999.90;999.90;;;;;;;15.27;77.43;101749.97;15672413;28;20037;-60
2021/09/28 22:11:14;;;;;;;1999.90;999.90;;;;;;;15.38;76.67;101741.16;15626075;28;20406;-60
2021/09/28 22:18:47;;;;;;;1999.90;999.90;;;;;;;15.24;77.91;101738.59;15654200;28;20136;-60
2021/09/28 22:26:20;;;;;;;1999.90;999.90;;;;;;;15.25;77.12;101727.00;15673162;28;20098;-60
2021/09/28 22:33:53;;;;;;;1999.90;999.90;;;;;;;15.13;77.26;101720.47;15652838;28;20040;-60
2021/09/28 22:41:25;;;;;;;1999.90;999.90;;;;;;;14.98;77.29;101725.50;15667384;28;20064;-60
2021/09/28 22:48:59;;;;;;;1999.90;999.90;;;;;;;14.90;77.23;101726.41;15670930;28;20099;-60
2021/09/28 22:56:31;;;;;;;1999.90;999.90;;;;;;;14.90;77.40;101708.69;15669449;28;20068;-60
2021/09/28 23:04:05;;;;;;;1999.90;999.90;;;;;;;14.89;77.39;101707.03;15671746;28;20588;-57
2021/09/28 23:11:40;;;;;;;1999.90;999.90;;;;;;;14.85;77.13;101706.91;15644132;28;20780;-60
2021/09/28 23:19:14;;;;;;;1999.90;999.90;;;;;;;14.69;77.40;101689.81;15663315;28;20040;-60
2021/09/28 23:26:46;;;;;;;1999.90;999.90;;;;;;;14.56;77.76;101698.44;15655234;28;20064;-58
2021/09/28 23:34:34;;;;;;;1999.90;999.90;;;;;;;14.59;77.60;101695.78;15681671;28;20041;-58
2021/09/28 23:42:07;;;;;;;1999.90;999.90;;;;;;;14.52;77.53;101691.84;15679280;28;20425;-58
2021/09/28 23:49:41;;;;;;;1999.90;999.90;;;;;;;14.55;77.50;101688.34;15658816;28;20045;-59
2021/09/28 23:57:13;;;;;;;1999.90;999.90;;;;;;;14.49;77.03;101682.13;15679765;28;20048;-60
